createdAt,value
2022-08-17T00:00:07.776Z,26.50
2022-08-17T00:05:15.405Z,26.30
2022-08-17T00:10:17.189Z,26.10
2022-08-17T00:15:21.636Z,26.40
2022-08-17T00:20:33.476Z,26.30
2022-08-17T00:25:37.178Z,26.30
2022-08-17T00:30:51.283Z,26.30
2022-08-17T00:35:56.171Z,26.60
2022-08-17T00:41:08.822Z,26.60
2022-08-17T00:46:21.143Z,26.80
2022-08-17T00:51:41.757Z,26.80
2022-08-17T00:56:49.985Z,26.40
2022-08-17T01:01:52.333Z,26.40
2022-08-17T01:06:56.537Z,26.40
2022-08-17T01:11:58.441Z,26.30
2022-08-17T01:17:00.297Z,26.40
2022-08-17T01:22:11.056Z,26.20
2022-08-17T01:27:14.317Z,26.30
2022-08-17T01:32:16.471Z,26.10
2022-08-17T01:37:20.431Z,26.20
2022-08-17T01:42:41.696Z,25.90
2022-08-17T01:47:44.059Z,25.60
2022-08-17T01:52:48.394Z,25.40
2022-08-17T01:57:50.321Z,25.50
2022-08-17T02:02:52.242Z,25.60
2022-08-17T02:07:59.700Z,25.60
2022-08-17T02:13:04.216Z,25.70
2022-08-17T02:18:06.455Z,25.70
2022-08-17T02:23:10.629Z,25.70
2022-08-17T02:28:12.386Z,25.80
2022-08-17T02:33:14.167Z,25.60
2022-08-17T02:38:15.990Z,25.80
2022-08-17T02:43:17.817Z,25.40
2022-08-17T02:48:30.792Z,25.60
2022-08-17T02:53:35.548Z,25.40
2022-08-17T02:58:37.903Z,25.30
2022-08-17T03:03:39.928Z,25.10
2022-08-17T03:08:43.930Z,25.00
2022-08-17T03:13:45.658Z,25.20
2022-08-17T03:18:47.406Z,25.20
2022-08-17T03:23:49.133Z,25.20
2022-08-17T03:28:56.513Z,25.20
2022-08-17T03:33:58.270Z,25.30
2022-08-17T03:39:00.598Z,25.80
2022-08-17T03:44:02.498Z,26.00
2022-08-17T03:49:06.439Z,25.90
2022-08-17T03:54:10.730Z,25.70
2022-08-17T03:59:20.870Z,25.70
2022-08-17T04:04:27.540Z,25.60
2022-08-17T04:09:29.839Z,25.60
2022-08-17T04:14:32.267Z,25.50
2022-08-17T04:19:34.148Z,25.20
2022-08-17T04:24:35.938Z,24.80
2022-08-17T04:29:48.764Z,25.20
2022-08-17T04:34:56.954Z,25.50
2022-08-17T04:40:03.407Z,25.30
2022-08-17T04:45:06.487Z,25.40
2022-08-17T04:50:08.656Z,25.30
2022-08-17T04:55:11.140Z,24.70
2022-08-17T05:00:13.289Z,24.60
2022-08-17T05:05:23.528Z,24.50
2022-08-17T05:10:27.807Z,25.20
2022-08-17T05:15:33.185Z,25.40
2022-08-17T05:20:40.263Z,25.40
2022-08-17T05:25:47.964Z,25.30
2022-08-17T05:30:50.257Z,25.00
2022-08-17T05:35:54.730Z,24.70
2022-08-17T05:40:57.561Z,24.40
2022-08-17T05:46:26.292Z,24.30
2022-08-17T05:51:34.043Z,24.60
2022-08-17T05:56:54.069Z,25.20
2022-08-17T06:02:14.395Z,25.70
2022-08-17T06:07:40.066Z,26.10
2022-08-17T06:12:54.831Z,26.10
2022-08-17T06:18:01.879Z,25.30
2022-08-17T06:23:08.316Z,25.70
2022-08-17T06:28:14.170Z,26.40
2022-08-17T06:33:23.675Z,26.80
2022-08-17T06:38:43.552Z,27.20
2022-08-17T06:44:43.312Z,27.40
2022-08-17T06:49:55.713Z,27.20
2022-08-17T06:55:18.026Z,27.50
2022-08-17T07:00:24.376Z,27.60
2022-08-17T07:05:35.873Z,27.90
2022-08-17T07:10:45.868Z,27.80
2022-08-17T07:15:55.189Z,28.10
2022-08-17T07:21:20.716Z,27.90
2022-08-17T07:26:24.728Z,28.00
2022-08-17T07:31:28.894Z,28.00
2022-08-17T07:36:30.633Z,28.10
2022-08-17T07:41:53.111Z,28.40
2022-08-17T07:46:59.748Z,28.60
2022-08-17T07:52:48.013Z,28.60
2022-08-17T07:57:34.221Z,28.60
2022-08-17T08:02:42.420Z,28.80
2022-08-17T08:08:00.101Z,29.00
2022-08-17T08:13:23.187Z,29.00
2022-08-17T08:18:54.473Z,29.10
2022-08-17T08:24:05.067Z,29.00
2022-08-17T08:29:35.127Z,29.20
2022-08-17T08:35:03.535Z,29.10
2022-08-17T08:40:17.598Z,29.30
2022-08-17T08:45:44.813Z,29.00
2022-08-17T08:51:13.450Z,29.10
2022-08-17T08:56:35.450Z,29.10
2022-08-17T09:02:34.743Z,28.90
2022-08-17T09:07:42.469Z,29.20
2022-08-17T09:13:14.780Z,29.00
2022-08-17T09:19:01.795Z,29.20
2022-08-17T09:24:01.132Z,29.40
2022-08-17T09:29:08.268Z,29.30
2022-08-17T09:34:19.010Z,29.50
2022-08-17T09:39:36.320Z,29.50
2022-08-17T09:44:51.855Z,29.80
2022-08-17T09:50:00.229Z,30.00
2022-08-17T09:55:02.099Z,30.00
2022-08-17T10:00:23.067Z,29.70
2022-08-17T10:05:45.940Z,29.70
2022-08-17T10:11:10.615Z,30.00
2022-08-17T10:16:29.560Z,29.30
2022-08-17T10:21:33.544Z,30.00
2022-08-17T10:26:55.698Z,30.60
2022-08-17T10:32:04.292Z,30.80
2022-08-17T10:37:11.782Z,30.40
2022-08-17T10:42:30.483Z,30.70
2022-08-17T10:48:02.581Z,30.70
2022-08-17T10:53:06.726Z,30.60
2022-08-17T10:58:20.786Z,30.70
2022-08-17T11:03:24.935Z,30.60
2022-08-17T11:08:36.425Z,31.10
2022-08-17T11:13:56.708Z,31.00
2022-08-17T11:19:13.114Z,31.60
2022-08-17T11:24:16.641Z,32.00
2022-08-17T11:29:26.379Z,31.40
2022-08-17T11:34:32.206Z,31.80
2022-08-17T11:39:48.670Z,31.30
2022-08-17T11:44:56.274Z,31.30
2022-08-17T11:50:19.265Z,31.10
2022-08-17T11:55:40.511Z,30.90
2022-08-17T12:00:49.587Z,31.10
2022-08-17T12:06:02.246Z,31.30
2022-08-17T12:11:09.752Z,31.60
2022-08-17T12:16:17.879Z,32.10
2022-08-17T12:21:59.758Z,32.70
2022-08-17T12:27:05.605Z,33.10
2022-08-17T12:32:15.559Z,33.30
2022-08-17T12:37:21.877Z,33.80
2022-08-17T12:42:30.364Z,32.90
2022-08-17T12:47:36.463Z,32.70
2022-08-17T12:52:41.023Z,32.00
2022-08-17T12:57:47.052Z,32.80
2022-08-17T13:02:53.325Z,32.40
2022-08-17T13:07:57.687Z,32.00
2022-08-17T13:13:00.748Z,31.90
2022-08-17T13:18:27.846Z,32.20
2022-08-17T13:23:30.273Z,31.80
2022-08-17T13:28:36.546Z,31.90
2022-08-17T13:33:44.654Z,31.50
2022-08-17T13:38:47.408Z,30.90
2022-08-17T13:43:49.523Z,30.50
2022-08-17T13:49:03.857Z,30.30
2022-08-17T13:54:08.325Z,30.50
2022-08-17T13:59:16.572Z,30.70
2022-08-17T14:04:41.373Z,30.80
2022-08-17T14:09:57.770Z,31.20
2022-08-17T14:15:00.280Z,30.30
2022-08-17T14:20:02.528Z,30.50
2022-08-17T14:25:05.855Z,30.00
2022-08-17T14:30:13.275Z,30.10
2022-08-17T14:35:15.705Z,29.90
2022-08-17T14:40:18.695Z,29.90
2022-08-17T14:45:31.946Z,30.00
2022-08-17T14:50:36.280Z,30.40
2022-08-17T14:55:38.391Z,30.60
2022-08-17T15:00:40.864Z,30.60
2022-08-17T15:05:42.881Z,30.60
2022-08-17T15:10:44.596Z,30.50
2022-08-17T15:15:47.271Z,30.30
2022-08-17T15:20:49.650Z,30.40
2022-08-17T15:25:54.210Z,30.10
2022-08-17T15:30:56.077Z,29.90
2022-08-17T15:36:00.021Z,29.80
2022-08-17T15:41:02.533Z,29.10
2022-08-17T15:46:10.491Z,29.00
2022-08-17T15:51:15.250Z,28.90
2022-08-17T15:56:17.235Z,28.90
2022-08-17T16:01:42.264Z,28.80
2022-08-17T16:06:44.075Z,28.70
2022-08-17T16:11:45.776Z,28.60
2022-08-17T16:16:53.928Z,28.40
2022-08-17T16:21:55.659Z,28.50
2022-08-17T16:26:57.641Z,28.30
2022-08-17T16:32:10.877Z,28.20
2022-08-17T16:37:12.694Z,28.00
2022-08-17T16:42:32.763Z,27.90
2022-08-17T16:47:34.480Z,27.90
2022-08-17T16:52:36.254Z,27.60
2022-08-17T16:57:38.092Z,27.50
2022-08-17T17:02:49.536Z,27.40
2022-08-17T17:08:14.723Z,27.30
2022-08-17T17:13:24.121Z,27.40
2022-08-17T17:18:56.432Z,27.10
2022-08-17T17:24:09.738Z,27.00
2022-08-17T17:29:19.755Z,27.00
2022-08-17T17:34:22.748Z,27.60
2022-08-17T17:39:33.531Z,27.00
2022-08-17T17:44:40.361Z,27.10
2022-08-17T17:49:45.468Z,27.10
2022-08-17T17:54:58.597Z,27.00
2022-08-17T18:00:12.261Z,27.00
2022-08-17T18:05:34.355Z,26.90
2022-08-17T18:10:58.866Z,26.80
2022-08-17T18:16:12.163Z,26.60
2022-08-17T18:21:20.880Z,26.70
2022-08-17T18:26:53.390Z,26.50
2022-08-17T18:32:18.176Z,26.10
2022-08-17T18:37:57.159Z,25.90
2022-08-17T18:43:01.415Z,26.20
2022-08-17T18:48:03.665Z,25.90
2022-08-17T18:53:30.362Z,26.20
2022-08-17T18:58:36.059Z,25.90
2022-08-17T19:03:42.607Z,25.90
2022-08-17T19:08:44.330Z,26.00
2022-08-17T19:14:11.788Z,25.90
2022-08-17T19:19:25.583Z,25.70
2022-08-17T19:24:31.233Z,25.90
2022-08-17T19:29:42.439Z,25.80
2022-08-17T19:34:44.352Z,25.90
2022-08-17T19:40:02.626Z,25.90
2022-08-17T19:45:19.085Z,26.50
2022-08-17T19:50:33.787Z,26.00
2022-08-17T19:55:57.684Z,26.10
2022-08-17T20:00:59.695Z,26.30
2022-08-17T20:06:13.044Z,26.20
2022-08-17T20:11:20.866Z,26.20
2022-08-17T20:16:23.427Z,25.90
2022-08-17T20:21:34.434Z,25.70
2022-08-17T20:27:11.634Z,25.60
2022-08-17T20:32:23.810Z,25.30
2022-08-17T20:37:30.330Z,25.50
2022-08-17T20:42:33.630Z,25.40
2022-08-17T20:48:00.765Z,25.40
2022-08-17T20:53:06.000Z,25.30
2022-08-17T20:58:19.696Z,25.30
2022-08-17T21:03:21.343Z,25.10
2022-08-17T21:08:27.423Z,25.10
2022-08-17T21:13:48.732Z,25.20
2022-08-17T21:19:11.365Z,25.30
2022-08-17T21:24:34.051Z,25.30
2022-08-17T21:30:06.518Z,25.40
2022-08-17T21:35:19.848Z,25.20
2022-08-17T21:40:26.133Z,25.10
2022-08-17T21:45:32.912Z,24.20
2022-08-17T21:50:35.354Z,24.20
2022-08-17T21:55:37.589Z,25.00
2022-08-17T22:00:39.343Z,25.20
2022-08-17T22:05:41.106Z,25.30
2022-08-17T22:10:45.648Z,25.30
2022-08-17T22:16:15.533Z,25.40
2022-08-17T22:21:30.887Z,25.20
2022-08-17T22:27:08.423Z,25.10
2022-08-17T22:32:10.587Z,25.00
2022-08-17T22:37:27.968Z,24.70
2022-08-17T22:42:29.931Z,24.40
2022-08-17T22:47:33.863Z,24.30
2022-08-17T22:52:42.580Z,24.90
2022-08-17T22:57:49.404Z,24.80
2022-08-17T23:03:25.661Z,25.00
2022-08-17T23:08:27.488Z,24.60
2022-08-17T23:13:29.358Z,24.90
2022-08-17T23:18:31.145Z,24.60
2022-08-17T23:23:34.265Z,24.10
2022-08-17T23:28:36.089Z,24.40
2022-08-17T23:33:39.493Z,24.40
2022-08-17T23:38:41.790Z,24.40
2022-08-17T23:43:46.631Z,23.90
2022-08-17T23:48:48.332Z,23.80
2022-08-17T23:53:54.404Z,23.90
2022-08-17T23:58:56.239Z,23.60
